Time;durP1;ratioP1;P1;durP2;ratioP2;P2;SDS_P1;SDS_P2;PMS_P1;PMS_P2;Temp;Humidity;BMP_temperature;BMP_pressure;BME280_temperature;BME280_humidity;BME280_pressure;Samples;Min_cycle;Max_cycle;Signal;HPM_P1;HPM_P2
2022/04/06 00:01:15;;;;;;;4.10;3.58;;;16.70;62.40;;;;;;5032973;28;20025;-73
2022/04/06 00:03:43;;;;;;;4.72;3.50;;;16.70;62.50;;;;;;5032697;28;20446;-73
2022/04/06 00:06:09;;;;;;;4.32;3.60;;;16.70;62.50;;;;;;5032963;28;20048;-73
2022/04/06 00:08:34;;;;;;;4.47;3.63;;;16.70;62.40;;;;;;5033050;28;20025;-73
2022/04/06 00:11:00;;;;;;;10.73;3.60;;;16.70;62.50;;;;;;5029078;28;20022;-73
2022/04/06 00:13:26;;;;;;;4.93;3.63;;;16.70;62.50;;;;;;5011768;28;20058;-73
2022/04/06 00:15:51;;;;;;;5.28;3.70;;;16.80;62.50;;;;;;5012918;28;20061;-73
2022/04/06 00:18:17;;;;;;;4.95;3.70;;;16.80;62.50;;;;;;5012037;28;20124;-73
2022/04/06 00:20:43;;;;;;;4.47;3.42;;;16.80;62.50;;;;;;5011800;28;20057;-73
2022/04/06 00:23:09;;;;;;;4.28;3.22;;;16.80;62.50;;;;;;5012823;28;20050;-73
2022/04/06 00:25:34;;;;;;;4.65;3.35;;;16.80;62.50;;;;;;5011778;28;20552;-73
2022/04/06 00:28:00;;;;;;;4.18;3.20;;;16.80;62.50;;;;;;5012705;28;20109;-72
2022/04/06 00:30:26;;;;;;;4.40;3.15;;;16.80;62.50;;;;;;5011539;28;20109;-73
2022/04/06 00:32:51;;;;;;;5.15;3.40;;;16.80;62.50;;;;;;5011571;28;20087;-73
2022/04/06 00:35:29;;;;;;;3.38;3.08;;;16.80;62.50;;;;;;5012991;28;20022;-73
2022/04/06 00:38:04;;;;;;;3.40;3.10;;;16.80;62.50;;;;;;5012759;28;20030;-73
2022/04/06 00:40:31;;;;;;;3.67;3.08;;;16.80;62.50;;;;;;5012685;28;20097;-73
2022/04/06 00:42:56;;;;;;;4.15;3.47;;;16.80;62.60;;;;;;5012440;28;20033;-73
2022/04/06 00:45:23;;;;;;;6.72;3.45;;;16.80;62.60;;;;;;5011486;28;20050;-73
2022/04/06 00:47:48;;;;;;;5.53;3.45;;;16.80;62.60;;;;;;5011478;28;20034;-73
2022/04/06 00:50:14;;;;;;;3.85;3.00;;;16.80;62.50;;;;;;5012550;28;20033;-73
2022/04/06 00:52:40;;;;;;;4.00;3.22;;;16.80;62.50;;;;;;5011350;28;20029;-73
2022/04/06 00:55:06;;;;;;;3.40;3.10;;;16.80;62.60;;;;;;5011148;28;20560;-73
2022/04/06 00:57:32;;;;;;;4.03;3.40;;;16.80;62.50;;;;;;5011251;28;20026;-73
2022/04/06 00:59:58;;;;;;;3.47;3.10;;;16.90;62.60;;;;;;5021930;28;20488;-73
2022/04/06 01:02:24;;;;;;;3.30;3.00;;;16.80;62.50;;;;;;5032388;28;20083;-73
2022/04/06 01:04:50;;;;;;;3.78;2.70;;;16.80;62.60;;;;;;5034927;28;20479;-73
2022/04/06 01:07:16;;;;;;;3.65;3.08;;;16.80;62.60;;;;;;5036353;28;20036;-73
2022/04/06 01:09:41;;;;;;;3.20;2.88;;;16.90;62.60;;;;;;5035171;28;20029;-73
2022/04/06 01:12:07;;;;;;;3.47;2.92;;;16.90;62.60;;;;;;5021822;28;20036;-73
2022/04/06 01:14:33;;;;;;;3.00;2.80;;;16.90;62.60;;;;;;5015180;28;20032;-73
2022/04/06 01:17:03;;;;;;;3.50;3.17;;;16.90;62.60;;;;;;5014950;28;20041;-73
2022/04/06 01:19:35;;;;;;;3.92;3.13;;;16.90;62.60;;;;;;5014955;28;20492;-72
2022/04/06 01:22:14;;;;;;;3.00;2.80;;;16.90;63.70;;;;;;5016243;28;20026;-72
2022/04/06 01:24:40;;;;;;;4.07;2.70;;;16.90;62.60;;;;;;5015144;28;20026;-72
2022/04/06 01:27:06;;;;;;;3.15;2.78;;;16.90;62.70;;;;;;5014608;28;20056;-72
2022/04/06 01:29:32;;;;;;;3.83;2.80;;;16.90;62.70;;;;;;5014934;28;20038;-72
2022/04/06 01:32:13;;;;;;;5.85;3.00;;;16.90;62.70;;;;;;5015886;28;20034;-72
2022/04/06 01:34:39;;;;;;;2.78;2.58;;;17.00;62.60;;;;;;5016026;28;20018;-72
2022/04/06 01:37:06;;;;;;;3.47;2.78;;;16.90;62.70;;;;;;5014690;28;20022;-73
2022/04/06 01:39:35;;;;;;;2.90;2.70;;;16.90;62.70;;;;;;5014717;28;20053;-72
2022/04/06 01:42:01;;;;;;;3.88;2.50;;;16.90;62.70;;;;;;5015802;28;20034;-72
2022/04/06 01:44:28;;;;;;;3.17;2.88;;;16.90;62.60;;;;;;5015567;28;20128;-72
2022/04/06 01:46:53;;;;;;;2.60;2.40;;;16.90;62.70;;;;;;5014440;28;20556;-73
2022/04/06 01:52:12;;;;;;;2.80;2.38;;;16.90;62.60;;;;;;5015547;28;20061;-73
2022/04/06 01:54:42;;;;;;;4.70;2.72;;;16.90;62.70;;;;;;5015928;28;20022;-73
2022/04/06 01:57:07;;;;;;;4.10;3.03;;;16.90;62.70;;;;;;5015569;28;20080;-73
2022/04/06 01:59:33;;;;;;;2.90;2.67;;;16.90;62.70;;;;;;5021720;28;20430;-73
2022/04/06 02:01:59;;;;;;;3.17;2.83;;;16.90;62.70;;;;;;5034038;28;20037;-73
2022/04/06 02:04:24;;;;;;;2.63;2.42;;;16.90;62.70;;;;;;5034092;28;20033;-73
2022/04/06 02:06:50;;;;;;;3.03;2.42;;;16.90;62.70;;;;;;5035006;28;20033;-72
2022/04/06 02:09:16;;;;;;;2.97;2.63;;;16.90;62.70;;;;;;5035026;28;20100;-72
2022/04/06 02:11:42;;;;;;;2.78;2.25;;;16.90;62.70;;;;;;5024578;28;20480;-72
2022/04/06 02:14:08;;;;;;;3.17;2.55;;;16.90;62.70;;;;;;5013167;28;20018;-72
2022/04/06 02:16:34;;;;;;;5.93;2.85;;;17.00;62.70;;;;;;5014041;28;20018;-72
2022/04/06 02:19:00;;;;;;;3.58;2.40;;;17.00;62.70;;;;;;5013864;28;20451;-72
2022/04/06 02:21:26;;;;;;;3.53;2.25;;;17.00;62.70;;;;;;5013935;28;20109;-72
2022/04/06 02:23:51;;;;;;;2.25;2.05;;;17.00;62.80;;;;;;5013896;28;20543;-72
2022/04/06 02:26:17;;;;;;;3.38;2.33;;;17.00;62.70;;;;;;5015044;28;20097;-72
2022/04/06 02:28:42;;;;;;;2.75;2.53;;;17.00;62.70;;;;;;5015090;28;20508;-72
2022/04/06 02:31:08;;;;;;;3.03;2.42;;;17.00;62.70;;;;;;5014869;28;20105;-72
2022/04/06 02:33:34;;;;;;;3.47;2.45;;;17.00;62.80;;;;;;5013619;28;20026;-72
2022/04/06 02:36:00;;;;;;;2.33;2.05;;;17.00;62.80;;;;;;5014953;28;20084;-72
2022/04/06 02:38:25;;;;;;;3.40;2.38;;;17.00;62.80;;;;;;5014662;28;20026;-73
2022/04/06 02:40:51;;;;;;;2.50;2.30;;;17.00;62.70;;;;;;5013600;28;20116;-72
2022/04/06 02:43:17;;;;;;;2.92;2.30;;;17.00;62.70;;;;;;5014922;28;20053;-73
2022/04/06 02:45:43;;;;;;;2.42;2.20;;;17.00;62.70;;;;;;5014465;28;20132;-72
2022/04/06 02:48:08;;;;;;;2.75;2.40;;;17.00;62.70;;;;;;5013360;28;20515;-73
2022/04/06 02:50:34;;;;;;;2.55;2.08;;;17.00;62.70;;;;;;5013657;28;20476;-73
2022/04/06 02:53:00;;;;;;;4.75;2.40;;;17.00;62.70;;;;;;5014031;28;20076;-72
2022/04/06 02:55:25;;;;;;;2.28;2.08;;;17.00;62.70;;;;;;5014563;28;20026;-72
2022/04/06 02:57:51;;;;;;;2.85;2.53;;;17.00;62.80;;;;;;5014398;28;20076;-72
2022/04/06 03:00:18;;;;;;;1.92;1.73;;;17.00;62.80;;;;;;5027761;28;20443;-73
2022/04/06 03:02:44;;;;;;;3.20;2.38;;;17.00;62.70;;;;;;5033051;28;20113;-72
2022/04/06 03:05:10;;;;;;;2.72;2.35;;;17.00;62.70;;;;;;5032872;28;20032;-72
2022/04/06 03:07:35;;;;;;;2.45;2.25;;;17.00;62.80;;;;;;5032591;28;20029;-73
2022/04/06 03:10:01;;;;;;;2.75;2.55;;;17.00;62.70;;;;;;5034117;28;20068;-72
2022/04/06 03:12:27;;;;;;;2.40;2.10;;;17.00;62.70;;;;;;5017346;28;20089;-72
2022/04/06 03:14:52;;;;;;;3.10;2.38;;;17.00;62.80;;;;;;5014487;28;20034;-72
2022/04/06 03:17:18;;;;;;;3.53;2.20;;;17.00;62.70;;;;;;5013024;28;20480;-72
2022/04/06 03:19:44;;;;;;;3.25;2.13;;;17.00;62.80;;;;;;5014081;28;20476;-73
2022/04/06 03:22:16;;;;;;;2.97;2.28;;;17.00;62.80;;;;;;5013512;28;20512;-72
2022/04/06 03:24:41;;;;;;;4.10;2.25;;;17.00;62.80;;;;;;5013979;28;20393;-72
2022/04/06 03:27:07;;;;;;;3.20;2.30;;;17.00;62.70;;;;;;5013745;28;20034;-72
2022/04/06 03:29:33;;;;;;;2.30;2.10;;;17.00;62.80;;;;;;5012723;28;20136;-72
2022/04/06 03:31:58;;;;;;;2.03;1.80;;;17.00;62.80;;;;;;5013760;28;20033;-72
2022/04/06 03:34:24;;;;;;;2.33;2.15;;;17.00;62.80;;;;;;5013755;28;20034;-72
2022/04/06 03:36:49;;;;;;;2.67;1.90;;;17.00;62.80;;;;;;5013475;28;20025;-72
2022/04/06 03:39:15;;;;;;;2.25;1.90;;;17.00;62.80;;;;;;5013688;28;20077;-73
2022/04/06 03:41:41;;;;;;;2.20;2.00;;;17.00;62.70;;;;;;5013568;28;20026;-73
2022/04/06 03:44:06;;;;;;;2.67;2.10;;;17.00;62.80;;;;;;5012093;28;20085;-73
2022/04/06 03:46:32;;;;;;;2.47;2.22;;;17.00;62.80;;;;;;5013736;28;20030;-73
2022/04/06 03:48:58;;;;;;;2.33;2.13;;;17.00;62.80;;;;;;5013465;28;20029;-72
2022/04/06 03:51:23;;;;;;;2.20;2.00;;;17.00;62.80;;;;;;5013361;28;20072;-72
2022/04/06 03:53:49;;;;;;;2.45;1.75;;;17.00;62.80;;;;;;5013298;28;20036;-72
2022/04/06 03:56:15;;;;;;;2.10;1.90;;;17.10;62.80;;;;;;5013193;28;20112;-72
2022/04/06 03:58:40;;;;;;;2.22;1.85;;;17.10;62.80;;;;;;5013786;28;20024;-72
2022/04/06 04:01:06;;;;;;;2.05;1.90;;;17.10;62.80;;;;;;5031948;28;20380;-72
2022/04/06 04:03:32;;;;;;;2.17;1.83;;;17.00;62.80;;;;;;5033046;28;20033;-72
2022/04/06 04:05:58;;;;;;;2.45;1.92;;;17.00;62.90;;;;;;5032710;28;20022;-72
2022/04/06 04:08:26;;;;;;;2.95;2.15;;;17.10;62.90;;;;;;5031698;28;20029;-72
2022/04/06 04:10:52;;;;;;;2.30;2.10;;;17.00;62.90;;;;;;5030454;28;20025;-72
2022/04/06 04:13:18;;;;;;;2.80;2.10;;;17.10;62.90;;;;;;5013056;28;20170;-72
2022/04/06 04:15:43;;;;;;;2.17;1.88;;;17.00;62.80;;;;;;5013160;28;20026;-72
2022/04/06 04:18:09;;;;;;;3.05;2.35;;;17.00;62.80;;;;;;5012814;28;20022;-72
2022/04/06 04:20:35;;;;;;;2.35;1.90;;;17.10;62.90;;;;;;5013007;28;20026;-72
2022/04/06 04:23:01;;;;;;;1.98;1.88;;;17.10;62.90;;;;;;5012951;28;20153;-72
2022/04/06 04:25:26;;;;;;;2.58;1.83;;;17.10;63.00;;;;;;5013104;28;20498;-72
2022/04/06 04:27:52;;;;;;;2.33;2.10;;;17.10;63.00;;;;;;5012938;28;20041;-72
2022/04/06 04:30:19;;;;;;;1.98;1.77;;;17.10;63.00;;;;;;5012655;28;20046;-72
2022/04/06 04:32:45;;;;;;;2.05;1.77;;;17.10;63.00;;;;;;5012845;28;20025;-72
2022/04/06 04:35:11;;;;;;;4.13;2.03;;;17.10;62.90;;;;;;5012632;28;20518;-72
2022/04/06 04:37:36;;;;;;;2.38;1.90;;;17.10;62.90;;;;;;5012206;28;20488;-72
2022/04/06 04:40:03;;;;;;;2.08;1.80;;;17.10;62.90;;;;;;5013295;28;20026;-72
2022/04/06 04:42:29;;;;;;;1.90;1.65;;;17.10;62.90;;;;;;5011373;28;20026;-72
2022/04/06 04:44:54;;;;;;;2.40;2.20;;;17.00;62.80;;;;;;5011232;28;20100;-72
2022/04/06 04:47:20;;;;;;;2.00;1.85;;;17.10;62.90;;;;;;5012645;28;20029;-73
2022/04/06 04:49:45;;;;;;;2.20;2.00;;;17.10;62.90;;;;;;5012453;28;20030;-73
2022/04/06 04:52:11;;;;;;;2.30;1.98;;;17.10;62.90;;;;;;5012583;28;20034;-73
2022/04/06 04:54:37;;;;;;;1.88;1.73;;;17.10;62.90;;;;;;5012591;28;20080;-73
2022/04/06 04:57:03;;;;;;;2.22;1.77;;;17.10;62.90;;;;;;5012484;28;20034;-73
2022/04/06 04:59:29;;;;;;;2.05;1.65;;;17.10;62.90;;;;;;5019472;28;20017;-72
2022/04/06 05:01:54;;;;;;;1.95;1.80;;;17.10;62.90;;;;;;5032310;28;20446;-73
2022/04/06 05:04:20;;;;;;;1.58;1.48;;;17.10;62.90;;;;;;5031887;28;20052;-72
2022/04/06 05:06:46;;;;;;;2.10;1.90;;;17.10;62.90;;;;;;5031044;28;20533;-73
2022/04/06 05:09:11;;;;;;;2.00;1.67;;;17.10;62.90;;;;;;5032002;28;20033;-73
2022/04/06 05:11:37;;;;;;;2.70;2.03;;;17.10;62.90;;;;;;5023489;28;20036;-73
2022/04/06 05:14:03;;;;;;;2.17;2.05;;;17.10;62.90;;;;;;5012535;28;20025;-73
2022/04/06 05:16:28;;;;;;;2.13;1.60;;;17.10;62.90;;;;;;5011249;28;20075;-72
2022/04/06 05:18:55;;;;;;;1.77;1.67;;;17.10;62.90;;;;;;5012202;28;20026;-72
2022/04/06 05:21:21;;;;;;;1.70;1.60;;;17.10;62.90;;;;;;5012262;28;20026;-72
2022/04/06 05:23:46;;;;;;;2.35;1.48;;;17.10;62.90;;;;;;5010922;28;20033;-72
2022/04/06 05:26:12;;;;;;;1.80;1.70;;;17.10;62.90;;;;;;5011119;28;20049;-72
2022/04/06 05:28:38;;;;;;;1.50;1.40;;;17.10;62.90;;;;;;5012326;28;20014;-72
2022/04/06 05:31:04;;;;;;;3.45;1.77;;;17.10;62.90;;;;;;5012331;28;20129;-72
2022/04/06 05:33:30;;;;;;;1.80;1.70;;;17.10;62.90;;;;;;5011914;28;20387;-72
2022/04/06 05:35:55;;;;;;;1.90;1.58;;;17.10;62.90;;;;;;5012240;28;20030;-72
2022/04/06 05:38:21;;;;;;;2.00;1.80;;;17.10;62.90;;;;;;5010957;28;20018;-72
2022/04/06 05:40:46;;;;;;;4.22;1.65;;;17.10;62.90;;;;;;5011122;28;20034;-72
2022/04/06 05:43:12;;;;;;;1.52;1.27;;;17.10;62.90;;;;;;5012258;28;20060;-72
2022/04/06 05:45:38;;;;;;;1.73;1.63;;;17.10;62.90;;;;;;5012045;28;20065;-72
2022/04/06 05:48:05;;;;;;;1.35;1.20;;;17.10;62.90;;;;;;5010652;28;20029;-73
2022/04/06 05:50:30;;;;;;;2.25;1.33;;;17.10;62.90;;;;;;5019311;28;20026;-72
2022/04/06 05:52:56;;;;;;;1.70;1.60;;;17.10;62.90;;;;;;5031795;28;20021;-73
2022/04/06 05:55:22;;;;;;;1.80;1.55;;;17.10;62.90;;;;;;5031631;28;20407;-73
2022/04/06 05:57:47;;;;;;;1.58;1.48;;;17.10;62.90;;;;;;5065064;28;20021;-73
2022/04/06 06:00:14;;;;;;;2.40;1.50;;;17.10;62.90;;;;;;5033029;28;20484;-73
2022/04/06 06:02:40;;;;;;;1.30;1.20;;;17.10;62.80;;;;;;5032954;28;20017;-72
2022/04/06 06:05:06;;;;;;;1.50;1.40;;;17.10;62.90;;;;;;5033064;28;20021;-73
2022/04/06 06:07:32;;;;;;;2.10;1.42;;;17.10;62.90;;;;;;5033160;28;20109;-73
2022/04/06 06:09:57;;;;;;;1.35;1.25;;;17.10;62.80;;;;;;5035168;28;20064;-73
2022/04/06 06:12:23;;;;;;;1.67;1.23;;;17.10;62.80;;;;;;5034986;28;20151;-72
2022/04/06 06:14:49;;;;;;;3.97;1.40;;;17.10;62.90;;;;;;5033740;28;20439;-73
2022/04/06 06:17:14;;;;;;;2.22;1.30;;;17.10;62.80;;;;;;5033849;28;20029;-73
2022/04/06 06:19:40;;;;;;;1.63;1.27;;;17.10;62.80;;;;;;5035008;28;20022;-73
2022/04/06 06:22:05;;;;;;;2.20;1.80;;;17.10;62.90;;;;;;5035000;28;20036;-73
2022/04/06 06:24:32;;;;;;;3.15;1.38;;;17.10;62.80;;;;;;5034845;28;20027;-72
2022/04/06 06:26:58;;;;;;;2.42;1.45;;;17.10;62.80;;;;;;5034733;28;20028;-72
2022/04/06 06:29:23;;;;;;;1.50;1.40;;;17.10;62.80;;;;;;5034606;28;20033;-73
2022/04/06 06:31:49;;;;;;;1.35;1.25;;;17.10;62.80;;;;;;5033718;28;20032;-73
2022/04/06 06:34:15;;;;;;;2.58;1.55;;;17.10;62.80;;;;;;5034620;28;20410;-73
2022/04/06 06:36:40;;;;;;;1.60;1.15;;;17.10;62.80;;;;;;5033573;28;20492;-72
2022/04/06 06:39:06;;;;;;;1.75;1.38;;;17.10;62.80;;;;;;5034694;28;20439;-73
2022/04/06 06:41:32;;;;;;;1.83;1.35;;;17.10;62.80;;;;;;5033408;28;20053;-73
2022/04/06 06:43:58;;;;;;;1.50;1.40;;;17.10;62.80;;;;;;5033114;28;20022;-72
2022/04/06 06:46:24;;;;;;;1.52;1.20;;;17.10;62.80;;;;;;5034545;28;20446;-73
2022/04/06 06:48:50;;;;;;;3.17;1.33;;;17.10;62.90;;;;;;5033381;28;20032;-73
2022/04/06 06:51:16;;;;;;;1.27;1.17;;;17.10;62.80;;;;;;5034218;28;20018;-73
2022/04/06 06:53:42;;;;;;;1.50;1.30;;;17.10;62.90;;;;;;5033061;28;20095;-73
2022/04/06 06:56:07;;;;;;;1.55;1.05;;;17.10;62.80;;;;;;5033222;28;20093;-73
2022/04/06 06:58:33;;;;;;;2.10;1.20;;;17.10;62.80;;;;;;5034062;28;20034;-73
2022/04/06 07:00:59;;;;;;;1.77;1.30;;;17.10;62.90;;;;;;5016065;28;20161;-73
2022/04/06 07:03:24;;;;;;;2.20;1.50;;;17.10;62.80;;;;;;5014390;28;20022;-73
2022/04/06 07:05:50;;;;;;;2.28;1.30;;;17.10;62.80;;;;;;4996657;28;20030;-73
2022/04/06 07:08:16;;;;;;;1.35;1.20;;;17.20;62.90;;;;;;5013098;28;20040;-73
2022/04/06 07:10:45;;;;;;;1.50;1.23;;;17.20;62.90;;;;;;5014596;28;20504;-73
2022/04/06 07:13:15;;;;;;;2.55;1.25;;;17.20;62.90;;;;;;5012854;28;20030;-73
2022/04/06 07:15:41;;;;;;;1.40;1.30;;;17.20;62.90;;;;;;5014213;28;20079;-73
2022/04/06 07:18:08;;;;;;;1.75;1.23;;;17.20;62.90;;;;;;5012964;28;20089;-73
2022/04/06 07:20:35;;;;;;;1.13;1.08;;;17.10;62.90;;;;;;5012976;28;20044;-73
2022/04/06 07:23:02;;;;;;;1.60;1.00;;;17.20;62.90;;;;;;5013935;28;20026;-73
2022/04/06 07:25:27;;;;;;;2.83;1.23;;;17.20;62.90;;;;;;5012759;28;20022;-73
2022/04/06 07:27:53;;;;;;;1.90;1.10;;;17.20;62.90;;;;;;5013890;28;20049;-73
2022/04/06 07:30:19;;;;;;;5.00;1.30;;;17.20;62.90;;;;;;5012603;28;20069;-73
2022/04/06 07:32:44;;;;;;;1.63;1.30;;;17.20;62.90;;;;;;5012658;28;20061;-73
2022/04/06 07:35:10;;;;;;;1.20;1.10;;;17.20;62.90;;;;;;5013880;28;20025;-73
2022/04/06 07:37:49;;;;;;;3.38;1.58;;;17.20;62.90;;;;;;5012455;28;20080;-73
2022/04/06 07:40:24;;;;;;;1.50;1.10;;;17.20;62.90;;;;;;5013736;28;20022;-72
2022/04/06 07:42:50;;;;;;;1.90;1.17;;;17.10;63.00;;;;;;5012411;28;20033;-73
2022/04/06 07:45:18;;;;;;;1.35;1.10;;;17.20;62.90;;;;;;5012417;28;20057;-73
2022/04/06 07:47:50;;;;;;;2.05;1.30;;;17.20;63.30;;;;;;5012397;28;20543;-73
2022/04/06 07:50:16;;;;;;;1.50;1.40;;;17.10;62.90;;;;;;5012450;28;20439;-73
2022/04/06 07:52:42;;;;;;;1.73;1.20;;;17.20;62.90;;;;;;5030251;28;20087;-73
2022/04/06 07:55:09;;;;;;;2.03;1.08;;;17.10;63.00;;;;;;5015578;28;20034;-73
2022/04/06 07:57:35;;;;;;;4.68;1.25;;;17.20;62.90;;;;;;5031773;28;20108;-72
2022/04/06 08:00:11;;;;;;;1.30;1.20;;;17.20;63.00;;;;;;5022464;28;20492;-73
2022/04/06 08:02:37;;;;;;;2.53;1.27;;;17.10;63.00;;;;;;5012243;28;20393;-73
2022/04/06 08:05:04;;;;;;;1.80;1.10;;;17.20;63.00;;;;;;5012130;28;20038;-73
2022/04/06 08:07:30;;;;;;;1.27;1.17;;;17.20;63.00;;;;;;5012039;28;20088;-73
2022/04/06 08:09:56;;;;;;;2.97;1.05;;;17.20;63.00;;;;;;5012223;28;20029;-73
2022/04/06 08:12:22;;;;;;;1.05;0.95;;;17.20;63.00;;;;;;5012149;28;20110;-74
2022/04/06 08:14:48;;;;;;;3.13;1.02;;;17.20;62.90;;;;;;5013250;28;20071;-74
2022/04/06 08:17:14;;;;;;;1.92;0.90;;;17.10;62.20;;;;;;5017852;28;20056;-73
2022/04/06 08:19:40;;;;;;;1.60;1.17;;;17.00;61.90;;;;;;5031329;28;20014;-73
2022/04/06 08:22:06;;;;;;;2.13;0.80;;;17.00;61.90;;;;;;5031486;28;20495;-72
2022/04/06 08:24:32;;;;;;;1.98;0.90;;;16.90;61.90;;;;;;5031362;28;20033;-72
2022/04/06 08:26:57;;;;;;;2.78;1.10;;;16.90;61.90;;;;;;5032551;28;20053;-74
2022/04/06 08:29:23;;;;;;;1.00;0.70;;;16.90;61.90;;;;;;5032760;28;20105;-74
2022/04/06 08:31:49;;;;;;;3.38;1.00;;;16.80;61.80;;;;;;5032573;28;20068;-74
2022/04/06 08:34:15;;;;;;;0.47;0.47;;;16.80;61.80;;;;;;5031552;28;20023;-74
2022/04/06 08:36:43;;;;;;;2.75;0.98;;;16.80;61.70;;;;;;5031237;28;20025;-74
2022/04/06 08:39:09;;;;;;;2.72;0.80;;;16.80;61.70;;;;;;5032406;28;20018;-73
2022/04/06 08:41:34;;;;;;;2.05;0.68;;;16.80;61.80;;;;;;5031079;28;20025;-74
2022/04/06 08:44:01;;;;;;;1.30;0.75;;;16.70;61.70;;;;;;5031144;28;20434;-74
2022/04/06 08:46:26;;;;;;;1.70;1.00;;;16.70;61.70;;;;;;5032460;28;20029;-74
2022/04/06 08:48:52;;;;;;;1.42;1.00;;;16.70;61.70;;;;;;5031027;28;20063;-74
2022/04/06 08:51:18;;;;;;;2.60;0.82;;;16.70;61.60;;;;;;5031149;28;20025;-73
2022/04/06 08:53:45;;;;;;;3.03;1.30;;;16.70;61.70;;;;;;5030946;28;20025;-74
2022/04/06 08:56:14;;;;;;;2.30;1.02;;;16.70;61.70;;;;;;5031199;28;20491;-73
2022/04/06 08:58:40;;;;;;;14.77;2.05;;;16.70;61.60;;;;;;5031070;28;20032;-72
2022/04/06 09:01:06;;;;;;;9.20;1.98;;;16.70;61.70;;;;;;5012581;28;20064;-72
2022/04/06 09:03:31;;;;;;;9.90;2.40;;;16.70;61.80;;;;;;5011203;28;20054;-72
2022/04/06 09:06:08;;;;;;;8.27;1.70;;;16.70;61.80;;;;;;5012349;28;20053;-72
2022/04/06 09:08:39;;;;;;;9.18;1.88;;;16.70;62.70;;;;;;5011189;28;20030;-72
2022/04/06 09:11:09;;;;;;;9.70;2.05;;;16.70;61.90;;;;;;5011035;28;20113;-72
2022/04/06 09:13:34;;;;;;;7.80;1.45;;;16.70;62.00;;;;;;5012318;28;20034;-72
2022/04/06 09:16:00;;;;;;;8.60;2.03;;;16.70;61.90;;;;;;5012589;28;20022;-72
2022/04/06 09:18:35;;;;;;;7.63;2.38;;;16.70;61.90;;;;;;5012094;28;20634;-72
2022/04/06 09:21:02;;;;;;;9.07;1.88;;;16.70;61.90;;;;;;5011699;28;20018;-72
2022/04/06 09:23:32;;;;;;;7.47;1.92;;;16.70;62.00;;;;;;5011381;28;20026;-72
2022/04/06 09:26:04;;;;;;;7.57;2.47;;;16.70;62.00;;;;;;5016195;28;20026;-72
2022/04/06 09:28:30;;;;;;;;;;;16.70;62.00;;;;;;5015329;28;20034;-72
2022/04/06 09:30:56;;;;;;;14.00;2.20;;;16.60;61.90;;;;;;5016037;28;19914;-72
2022/04/06 09:33:22;;;;;;;6.82;1.90;;;16.60;62.20;;;;;;5014934;28;20060;-72
2022/04/06 09:35:48;;;;;;;6.93;1.70;;;16.60;62.10;;;;;;5014565;28;20484;-72
2022/04/06 09:38:13;;;;;;;8.77;1.58;;;16.60;62.10;;;;;;5014654;28;20054;-72
2022/04/06 09:40:39;;;;;;;5.97;1.70;;;16.60;62.00;;;;;;5015845;28;20065;-72
2022/04/06 09:43:06;;;;;;;5.72;1.85;;;16.60;62.00;;;;;;5014737;28;20056;-72
2022/04/06 09:48:27;;;;;;;7.75;1.80;;;16.60;61.90;;;;;;5033280;28;20120;-72
2022/04/06 09:50:56;;;;;;;7.95;1.63;;;16.60;62.30;;;;;;5033367;28;20582;-72
2022/04/06 09:53:25;;;;;;;10.30;2.13;;;16.60;62.00;;;;;;5016730;28;20044;-72
2022/04/06 09:55:55;;;;;;;6.50;1.70;;;16.60;62.00;;;;;;5033175;28;20102;-72
2022/04/06 09:58:22;;;;;;;7.90;1.67;;;16.60;61.90;;;;;;5033209;28;20057;-72
2022/04/06 10:00:47;;;;;;;8.65;1.65;;;16.60;61.90;;;;;;5016764;28;20058;-72
2022/04/06 10:03:15;;;;;;;7.13;1.80;;;16.60;61.90;;;;;;5049935;28;20038;-72
2022/04/06 10:05:42;;;;;;;6.90;1.92;;;16.50;61.80;;;;;;5032656;28;20045;-72
2022/04/06 10:08:09;;;;;;;5.65;1.55;;;16.60;61.90;;;;;;5032841;28;20052;-72
2022/04/06 10:10:40;;;;;;;4.10;1.63;;;16.60;61.90;;;;;;5032940;28;20037;-68
2022/04/06 10:13:07;;;;;;;3.05;1.27;;;16.60;61.80;;;;;;5032424;28;20040;-73
2022/04/06 10:15:34;;;;;;;5.00;1.58;;;16.60;61.80;;;;;;5032940;28;20034;-72
2022/04/06 10:18:00;;;;;;;7.88;1.30;;;16.50;61.80;;;;;;5032812;28;20044;-71
2022/04/06 10:20:49;;;;;;;6.88;1.88;;;16.50;61.70;;;;;;5032865;28;20032;-72
2022/04/06 10:23:39;;;;;;;7.13;1.45;;;16.60;61.70;;;;;;5030937;28;20148;-71
2022/04/06 10:26:13;;;;;;;3.97;1.25;;;16.60;61.80;;;;;;5015271;28;20427;-72
2022/04/06 10:28:44;;;;;;;3.78;1.35;;;16.50;61.90;;;;;;5013978;28;20056;-72
2022/04/06 10:31:15;;;;;;;5.72;1.30;;;16.50;61.80;;;;;;5015261;28;20022;-71
2022/04/06 10:33:40;;;;;;;5.63;1.27;;;16.50;61.80;;;;;;5013838;28;20022;-71
2022/04/06 10:36:19;;;;;;;2.47;1.30;;;16.50;61.80;;;;;;5012746;28;20026;-72
2022/04/06 10:39:06;;;;;;;5.30;1.30;;;16.60;61.70;;;;;;5013803;28;20021;-71
2022/04/06 10:41:33;;;;;;;6.85;1.67;;;16.60;61.70;;;;;;5012132;28;20049;-72
2022/04/06 10:43:58;;;;;;;3.15;1.20;;;16.60;61.90;;;;;;5013502;28;20381;-70
2022/04/06 10:46:40;;;;;;;4.00;1.30;;;16.60;61.90;;;;;;5014604;28;20038;-72
2022/04/06 10:49:06;;;;;;;4.07;1.20;;;16.60;61.70;;;;;;5028674;28;20021;-71
2022/04/06 10:51:33;;;;;;;2.72;1.20;;;16.60;61.90;;;;;;5033196;28;20439;-71
2022/04/06 10:54:00;;;;;;;4.95;1.17;;;16.60;61.90;;;;;;5034304;28;20009;-71
2022/04/06 10:56:29;;;;;;;3.83;1.13;;;16.60;61.90;;;;;;5032431;28;20033;-71
2022/04/06 10:58:58;;;;;;;3.22;1.20;;;16.70;61.90;;;;;;5032323;28;20021;-71
2022/04/06 11:01:29;;;;;;;2.45;1.30;;;16.70;62.00;;;;;;5033932;28;20021;-72
2022/04/06 11:03:58;;;;;;;7.43;2.20;;;16.70;62.00;;;;;;5033469;28;20049;-71
2022/04/06 11:06:59;;;;;;;14.73;3.92;;;16.70;62.00;;;;;;5033054;28;20052;-71
2022/04/06 11:12:29;;;;;;;21.52;6.68;;;16.80;62.10;;;;;;5032425;28;20032;-71
2022/04/06 11:15:00;;;;;;;21.83;7.00;;;16.80;62.20;;;;;;5032125;28;20021;-72
2022/04/06 11:17:35;;;;;;;22.08;6.90;;;16.80;62.20;;;;;;5033128;28;20026;-73
2022/04/06 11:20:14;;;;;;;26.35;8.05;;;16.80;62.20;;;;;;5033218;28;20039;-72
2022/04/06 11:22:43;;;;;;;26.02;8.82;;;16.90;62.40;;;;;;5032051;28;20026;-72
2022/04/06 11:25:11;;;;;;;30.23;9.02;;;16.90;62.40;;;;;;5032065;28;20102;-71
2022/04/06 11:27:37;;;;;;;30.15;9.60;;;16.90;62.40;;;;;;5032544;28;20052;-73
2022/04/06 11:30:12;;;;;;;31.45;10.13;;;16.90;62.40;;;;;;5032696;28;20064;-72
2022/04/06 11:32:38;;;;;;;28.70;9.45;;;17.00;62.50;;;;;;5033378;28;20104;-70
2022/04/06 11:35:09;;;;;;;28.95;9.60;;;17.00;62.50;;;;;;5032302;28;20075;-72
2022/04/06 11:37:41;;;;;;;29.88;10.07;;;17.10;62.60;;;;;;5032445;28;20515;-70
2022/04/06 11:40:07;;;;;;;;;;;17.10;62.60;;;;;;5032707;28;20021;-72
2022/04/06 11:42:33;;;;;;;30.35;8.68;;;17.10;62.90;;;;;;5033580;28;20291;-73
2022/04/06 11:44:58;;;;;;;25.35;9.38;;;17.00;62.90;;;;;;5033063;28;20180;-72
2022/04/06 11:47:34;;;;;;;25.05;8.23;;;17.10;63.00;;;;;;5033631;28;20377;-71
2022/04/06 11:50:01;;;;;;;25.83;9.05;;;17.10;63.00;;;;;;5032080;28;20029;-70
2022/04/06 11:52:27;;;;;;;26.67;9.52;;;17.10;62.90;;;;;;5031874;28;20487;-71
2022/04/06 11:54:53;;;;;;;24.40;9.75;;;17.10;62.90;;;;;;5031971;28;20028;-73
2022/04/06 11:57:19;;;;;;;31.45;11.32;;;17.20;62.90;;;;;;5033240;28;20389;-74
2022/04/06 12:00:09;;;;;;;28.48;11.95;;;17.20;63.00;;;;;;5035690;28;20025;-74
2022/04/06 12:02:54;;;;;;;30.45;13.32;;;17.20;63.00;;;;;;5028045;28;20068;-74
2022/04/06 12:05:24;;;;;;;27.25;13.40;;;17.20;63.00;;;;;;5046103;28;20045;-74
2022/04/06 12:08:09;;;;;;;29.60;13.63;;;17.20;63.10;;;;;;5064145;28;20030;-74
2022/04/06 12:10:34;;;;;;;28.27;12.73;;;17.20;63.10;;;;;;5048227;28;20029;-75
2022/04/06 12:13:00;;;;;;;27.63;12.93;;;17.20;63.10;;;;;;5033360;28;20040;-76
2022/04/06 12:15:25;;;;;;;30.38;14.18;;;17.20;63.10;;;;;;5032224;28;20024;-72
2022/04/06 12:17:51;;;;;;;26.10;13.23;;;17.30;63.20;;;;;;5048473;28;20022;-74
2022/04/06 12:20:24;;;;;;;27.77;12.52;;;17.30;63.20;;;;;;5065036;28;20080;-74
2022/04/06 12:23:08;;;;;;;30.33;13.27;;;17.30;63.20;;;;;;5033086;28;20033;-75
2022/04/06 12:25:34;;;;;;;28.05;13.27;;;17.30;63.20;;;;;;5033212;28;20498;-75
2022/04/06 12:28:22;;;;;;;25.50;12.27;;;17.30;63.20;;;;;;5033008;28;20029;-75
2022/04/06 12:31:04;;;;;;;18.25;10.07;;;17.40;63.30;;;;;;5033182;28;20094;-74
2022/04/06 12:33:50;;;;;;;23.70;11.60;;;17.40;63.40;;;;;;5019619;28;20073;-75
2022/04/06 12:36:24;;;;;;;24.85;12.82;;;17.30;63.30;;;;;;5028400;28;20109;-75
2022/04/06 12:39:10;;;;;;;23.08;10.63;;;17.40;63.50;;;;;;5012201;28;20052;-75
2022/04/06 12:42:01;;;;;;;26.17;11.38;;;17.40;63.50;;;;;;5030319;28;20013;-74
2022/04/06 12:44:27;;;;;;;16.15;9.30;;;17.40;63.40;;;;;;5064285;28;20045;-73
2022/04/06 12:46:53;;;;;;;18.33;10.13;;;17.40;63.50;;;;;;5032367;28;20484;-73
2022/04/06 12:49:29;;;;;;;17.80;9.90;;;17.40;63.50;;;;;;5036369;28;20025;-73
2022/04/06 12:52:17;;;;;;;23.52;10.55;;;17.40;63.50;;;;;;5032665;28;20124;-75
2022/04/06 12:54:47;;;;;;;18.90;9.45;;;17.40;63.50;;;;;;5042320;28;20021;-75
2022/04/06 12:57:19;;;;;;;19.75;9.98;;;17.40;63.50;;;;;;5045244;28;20099;-76